Time;durP1;ratioP1;P1;durP2;ratioP2;P2;SDS_P1;SDS_P2;PMS_P1;PMS_P2;Temp;Humidity;BMP_temperature;BMP_pressure;BME280_temperature;BME280_humidity;BME280_pressure;Samples;Min_cycle;Max_cycle;Signal;HPM_P1;HPM_P2
2023/03/23 00:02:19;;;;;;;2.60;1.20;;;;;;;;;;4963828;28;86359;-59
2023/03/23 00:04:49;;;;;;;1.67;1.00;;;;;;;;;;4959902;28;89006;-59
2023/03/23 00:07:20;;;;;;;2.23;1.10;;;;;;;;;;4963977;28;87626;-59
2023/03/23 00:09:52;;;;;;;3.83;1.67;;;;;;;;;;4981034;28;87957;-59
2023/03/23 00:12:21;;;;;;;2.10;1.53;;;;;;;;;;4981519;28;87121;-59
2023/03/23 00:14:53;;;;;;;1.27;1.13;;;;;;;;;;4980712;28;87845;-59
2023/03/23 00:17:23;;;;;;;2.80;1.40;;;;;;;;;;4981204;28;87403;-59
2023/03/23 00:19:50;;;;;;;1.37;1.27;;;;;;;;;;4981347;28;86992;-59
2023/03/23 00:22:20;;;;;;;3.10;1.47;;;;;;;;;;4981375;28;87118;-59
2023/03/23 00:24:48;;;;;;;2.07;1.47;;;;;;;;;;4962328;28;89410;-59
2023/03/23 00:27:15;;;;;;;1.93;1.30;;;;;;;;;;4980529;28;87452;-59
2023/03/23 00:29:44;;;;;;;1.73;1.33;;;;;;;;;;4963256;28;87593;-59
2023/03/23 00:32:13;;;;;;;1.80;0.97;;;;;;;;;;4957950;28;88185;-59
2023/03/23 00:34:43;;;;;;;1.00;0.90;;;;;;;;;;4961695;28;90309;-60
2023/03/23 00:37:10;;;;;;;1.60;0.80;;;;;;;;;;4962698;28;89334;-59
2023/03/23 00:39:37;;;;;;;2.83;1.23;;;;;;;;;;4970275;28;87124;-59
2023/03/23 00:42:05;;;;;;;1.33;1.23;;;;;;;;;;4960434;28;87140;-59
2023/03/23 00:44:34;;;;;;;1.33;1.13;;;;;;;;;;4980556;28;86965;-60
2023/03/23 00:47:01;;;;;;;2.40;1.40;;;;;;;;;;4958758;28;89051;-59
2023/03/23 00:49:29;;;;;;;3.57;1.33;;;;;;;;;;4962974;28;87550;-59
2023/03/23 00:51:58;;;;;;;3.23;1.23;;;;;;;;;;4980695;28;86421;-59
2023/03/23 00:54:26;;;;;;;4.77;1.53;;;;;;;;;;4975087;28;87777;-59
2023/03/23 00:56:53;;;;;;;1.53;1.43;;;;;;;;;;4962959;28;88939;-59
2023/03/23 00:59:20;;;;;;;1.40;1.00;;;;;;;;;;4963198;28;87967;-59
2023/03/23 01:01:49;;;;;;;3.00;1.40;;;;;;;;;;4962286;28;87809;-60
2023/03/23 01:04:16;;;;;;;2.33;1.10;;;;;;;;;;4977170;28;89090;-59
2023/03/23 01:06:44;;;;;;;3.13;1.47;;;;;;;;;;4979872;28;87517;-59
2023/03/23 01:09:14;;;;;;;1.70;1.13;;;;;;;;;;4974341;28;87132;-59
2023/03/23 01:11:41;;;;;;;1.03;0.80;;;;;;;;;;4976323;28;86967;-59
2023/03/23 01:14:09;;;;;;;3.33;1.30;;;;;;;;;;4979746;28;87275;-59
2023/03/23 01:16:37;;;;;;;1.00;0.90;;;;;;;;;;4958643;28;88918;-59
2023/03/23 01:19:04;;;;;;;2.10;1.27;;;;;;;;;;4962692;28;87121;-59
2023/03/23 01:21:32;;;;;;;2.20;1.13;;;;;;;;;;4961210;28;87201;-59
2023/03/23 01:23:59;;;;;;;2.43;1.10;;;;;;;;;;4979334;28;89955;-59
2023/03/23 01:26:28;;;;;;;1.80;1.13;;;;;;;;;;4962106;28;91716;-59
2023/03/23 01:28:55;;;;;;;1.20;1.03;;;;;;;;;;4962145;28;87048;-59
2023/03/23 01:31:23;;;;;;;2.50;1.20;;;;;;;;;;4956694;28;89217;-59
2023/03/23 01:33:51;;;;;;;1.20;0.80;;;;;;;;;;4974973;28;87884;-59
2023/03/23 01:36:18;;;;;;;1.10;1.00;;;;;;;;;;4962295;28;89015;-59
2023/03/23 01:38:46;;;;;;;1.33;1.13;;;;;;;;;;4962123;28;87311;-59
2023/03/23 01:41:13;;;;;;;2.13;0.83;;;;;;;;;;4962900;28;86437;-59
2023/03/23 01:46:35;;;;;;;3.30;1.53;;;;;;;;;;5042853;28;81792;-59
2023/03/23 01:49:06;;;;;;;2.07;1.30;;;;;;;;;;5019616;28;83765;-59
2023/03/23 01:51:33;;;;;;;1.03;0.93;;;;;;;;;;5018960;28;82502;-59
2023/03/23 01:54:01;;;;;;;1.57;1.03;;;;;;;;;;5019633;28;82843;-59
2023/03/23 01:56:32;;;;;;;1.90;1.37;;;;;;;;;;5020320;28;82762;-59
2023/03/23 01:58:59;;;;;;;1.40;0.93;;;;;;;;;;5020579;28;81582;-59
2023/03/23 02:01:27;;;;;;;2.77;1.00;;;;;;;;;;5020961;28;83358;-59
2023/03/23 02:03:55;;;;;;;1.60;1.20;;;;;;;;;;5020355;28;82639;-59
2023/03/23 02:06:23;;;;;;;1.17;1.07;;;;;;;;;;5019539;28;82311;-59
2023/03/23 02:08:50;;;;;;;1.10;1.00;;;;;;;;;;5053235;27;81732;-59
2023/03/23 02:11:18;;;;;;;1.90;1.20;;;;;;;;;;5019538;28;81751;-59
2023/03/23 02:13:45;;;;;;;1.67;1.10;;;;;;;;;;5018690;28;82723;-59
2023/03/23 02:16:15;;;;;;;1.40;1.10;;;;;;;;;;5018838;28;83527;-59
2023/03/23 02:18:52;;;;;;;1.40;1.10;;;;;;;;;;5019851;28;81418;-59
2023/03/23 02:21:35;;;;;;;1.60;0.90;;;;;;;;;;5020204;28;81665;-60
2023/03/23 02:24:26;;;;;;;1.43;0.73;;;;;;;;;;5019193;28;84159;-59
2023/03/23 02:26:55;;;;;;;2.07;0.90;;;;;;;;;;5024155;28;83777;-59
2023/03/23 02:29:26;;;;;;;2.30;0.90;;;;;;;;;;5028453;27;81644;-59
2023/03/23 02:31:59;;;;;;;4.47;0.90;;;;;;;;;;5019572;28;81626;-60
2023/03/23 02:34:28;;;;;;;0.90;0.80;;;;;;;;;;5028520;28;84684;-59
2023/03/23 02:36:57;;;;;;;1.73;1.13;;;;;;;;;;5019714;28;83148;-60
2023/03/23 02:39:26;;;;;;;3.10;1.23;;;;;;;;;;5019722;28;81696;-59
2023/03/23 02:41:54;;;;;;;1.17;1.03;;;;;;;;;;5021111;28;81484;-59
2023/03/23 02:44:22;;;;;;;2.17;1.13;;;;;;;;;;5019422;28;83849;-58
2023/03/23 02:46:49;;;;;;;0.67;0.67;;;;;;;;;;5018460;28;83129;-60
2023/03/23 02:49:17;;;;;;;0.90;0.70;;;;;;;;;;5020733;28;81932;-59
2023/03/23 02:51:46;;;;;;;1.20;0.80;;;;;;;;;;5019289;28;81596;-60
2023/03/23 02:54:14;;;;;;;1.37;0.87;;;;;;;;;;5019036;28;83851;-59
2023/03/23 02:56:41;;;;;;;1.93;1.00;;;;;;;;;;5012229;28;81975;-59
2023/03/23 02:59:09;;;;;;;1.00;1.00;;;;;;;;;;5005290;28;82732;-59
2023/03/23 03:01:57;;;;;;;1.63;1.00;;;;;;;;;;5005667;28;81913;-59
2023/03/23 03:04:24;;;;;;;0.43;0.43;;;;;;;;;;5005694;28;83907;-59
2023/03/23 03:06:58;;;;;;;0.77;0.77;;;;;;;;;;5004984;28;84698;-59
2023/03/23 03:09:28;;;;;;;1.97;0.70;;;;;;;;;;5007540;28;81298;-59
2023/03/23 03:11:58;;;;;;;1.53;0.87;;;;;;;;;;5005922;28;83382;-59
2023/03/23 03:14:26;;;;;;;1.33;1.13;;;;;;;;;;5004761;28;85309;-60
2023/03/23 03:16:55;;;;;;;1.03;1.00;;;;;;;;;;5005912;28;82277;-59
2023/03/23 03:19:25;;;;;;;0.83;0.83;;;;;;;;;;5005182;28;83688;-59
2023/03/23 03:21:52;;;;;;;1.40;0.80;;;;;;;;;;5004345;28;83031;-59
2023/03/23 03:24:21;;;;;;;0.53;0.53;;;;;;;;;;5005535;28;83500;-59
2023/03/23 03:26:50;;;;;;;0.80;0.60;;;;;;;;;;5004706;28;82116;-59
2023/03/23 03:29:17;;;;;;;0.70;0.70;;;;;;;;;;5003350;28;81736;-59
2023/03/23 03:31:45;;;;;;;1.13;0.70;;;;;;;;;;5000966;28;82596;-59
2023/03/23 03:34:17;;;;;;;1.03;0.93;;;;;;;;;;5002812;28;83822;-59
2023/03/23 03:36:45;;;;;;;0.73;0.63;;;;;;;;;;5002591;28;83023;-59
2023/03/23 03:39:14;;;;;;;0.50;0.50;;;;;;;;;;5004934;28;82897;-59
2023/03/23 03:41:43;;;;;;;1.27;1.13;;;;;;;;;;5006353;28;81776;-59
2023/03/23 03:44:10;;;;;;;0.73;0.73;;;;;;;;;;5004865;28;83882;-59
2023/03/23 03:46:38;;;;;;;1.57;1.23;;;;;;;;;;5004737;28;84087;-59
2023/03/23 03:49:06;;;;;;;0.80;0.70;;;;;;;;;;5005552;28;81755;-59
2023/03/23 03:51:34;;;;;;;1.57;0.60;;;;;;;;;;5006458;28;81786;-59
2023/03/23 03:54:01;;;;;;;0.80;0.67;;;;;;;;;;5005220;28;82363;-59
2023/03/23 03:56:28;;;;;;;0.70;0.70;;;;;;;;;;5005961;28;82103;-59
2023/03/23 03:58:57;;;;;;;0.77;0.70;;;;;;;;;;5006014;28;83116;-59
2023/03/23 04:01:24;;;;;;;0.77;0.40;;;;;;;;;;5005780;28;81721;-59
2023/03/23 04:03:51;;;;;;;0.73;0.47;;;;;;;;;;5005100;28;83584;-59
2023/03/23 04:06:19;;;;;;;0.37;0.37;;;;;;;;;;4989372;28;81904;-59
2023/03/23 04:08:46;;;;;;;0.43;0.40;;;;;;;;;;5003392;28;81766;-59
2023/03/23 04:11:14;;;;;;;1.47;1.10;;;;;;;;;;5005578;28;81610;-60
2023/03/23 04:13:42;;;;;;;0.50;0.50;;;;;;;;;;5004236;28;85447;-59
2023/03/23 04:16:10;;;;;;;0.77;0.77;;;;;;;;;;5004434;28;83123;-59
2023/03/23 04:18:38;;;;;;;2.00;1.10;;;;;;;;;;5006154;28;81868;-59
2023/03/23 04:21:07;;;;;;;1.07;0.97;;;;;;;;;;5005278;28;81388;-59
2023/03/23 04:23:35;;;;;;;0.60;0.50;;;;;;;;;;5005304;28;83756;-59
2023/03/23 04:26:03;;;;;;;0.97;0.87;;;;;;;;;;5003352;28;82029;-59
2023/03/23 04:28:33;;;;;;;1.20;1.03;;;;;;;;;;5011874;28;82221;-59
2023/03/23 04:31:01;;;;;;;1.73;1.23;;;;;;;;;;5004241;28;82897;-59
2023/03/23 04:33:30;;;;;;;0.53;0.50;;;;;;;;;;5010772;28;82102;-59
2023/03/23 04:35:58;;;;;;;0.80;0.60;;;;;;;;;;5003917;28;83045;-59
2023/03/23 04:38:25;;;;;;;1.13;0.80;;;;;;;;;;5003657;28;81708;-59
2023/03/23 04:40:53;;;;;;;0.87;0.77;;;;;;;;;;5003591;28;81662;-59
2023/03/23 04:43:22;;;;;;;0.70;0.70;;;;;;;;;;5004821;28;83368;-59
2023/03/23 04:45:50;;;;;;;0.50;0.50;;;;;;;;;;5002956;28;82249;-59
2023/03/23 04:48:19;;;;;;;0.77;0.77;;;;;;;;;;5003483;28;83282;-59
2023/03/23 04:50:48;;;;;;;1.17;1.10;;;;;;;;;;4994933;28;83247;-59
2023/03/23 04:53:17;;;;;;;0.77;0.77;;;;;;;;;;5004829;28;82908;-59
2023/03/23 04:55:45;;;;;;;1.23;0.67;;;;;;;;;;4996524;28;83121;-59
2023/03/23 04:58:14;;;;;;;2.93;0.93;;;;;;;;;;5004648;28;81701;-59
2023/03/23 05:00:43;;;;;;;0.97;0.70;;;;;;;;;;5023871;28;82118;-58
2023/03/23 05:03:11;;;;;;;1.00;0.77;;;;;;;;;;5005915;28;82399;-59
2023/03/23 05:05:40;;;;;;;0.93;0.60;;;;;;;;;;5003001;28;83297;-58
2023/03/23 05:08:08;;;;;;;0.87;0.70;;;;;;;;;;5005404;28;81761;-58
2023/03/23 05:10:35;;;;;;;0.77;0.67;;;;;;;;;;5005202;28;81596;-58
2023/03/23 05:13:03;;;;;;;1.17;0.90;;;;;;;;;;5003505;28;82724;-58
2023/03/23 05:15:30;;;;;;;1.33;0.70;;;;;;;;;;5003701;28;83016;-58
2023/03/23 05:17:58;;;;;;;2.20;0.53;;;;;;;;;;5002844;28;81744;-58
2023/03/23 05:20:25;;;;;;;0.70;0.70;;;;;;;;;;5003094;28;81911;-58
2023/03/23 05:22:52;;;;;;;0.77;0.77;;;;;;;;;;5004653;28;82571;-59
2023/03/23 05:25:22;;;;;;;1.30;0.87;;;;;;;;;;5002376;28;82280;-59
2023/03/23 05:27:52;;;;;;;0.63;0.63;;;;;;;;;;5003972;28;82638;-59
2023/03/23 05:30:20;;;;;;;0.77;0.77;;;;;;;;;;5003929;28;81702;-58
2023/03/23 05:32:50;;;;;;;1.07;0.70;;;;;;;;;;5005287;28;82768;-59
2023/03/23 05:35:17;;;;;;;2.33;0.90;;;;;;;;;;5004081;28;83230;-60
2023/03/23 05:37:45;;;;;;;1.53;0.87;;;;;;;;;;5002691;28;83087;-54
2023/03/23 05:40:13;;;;;;;0.80;0.60;;;;;;;;;;5003559;28;82980;-55
2023/03/23 05:42:41;;;;;;;1.97;0.70;;;;;;;;;;5003008;28;83638;-54
2023/03/23 05:45:10;;;;;;;2.03;1.40;;;;;;;;;;5004608;28;81884;-55
2023/03/23 05:47:38;;;;;;;2.07;0.70;;;;;;;;;;5002242;28;81786;-55
2023/03/23 05:50:06;;;;;;;0.60;0.60;;;;;;;;;;5000269;28;81363;-55
2023/03/23 05:52:35;;;;;;;1.27;0.93;;;;;;;;;;4997246;28;84179;-54
2023/03/23 05:55:03;;;;;;;0.63;0.33;;;;;;;;;;5000219;28;82638;-54
2023/03/23 05:57:30;;;;;;;1.17;0.60;;;;;;;;;;4997752;28;83593;-54
2023/03/23 05:59:59;;;;;;;1.80;0.60;;;;;;;;;;4990326;28;81975;-55
2023/03/23 06:02:28;;;;;;;0.57;0.57;;;;;;;;;;4997672;28;82726;-54
2023/03/23 06:04:57;;;;;;;2.57;0.70;;;;;;;;;;5003559;28;84923;-54
2023/03/23 06:07:24;;;;;;;1.83;0.70;;;;;;;;;;5002375;28;84989;-55
2023/03/23 06:09:52;;;;;;;0.67;0.67;;;;;;;;;;5003550;28;81988;-55
2023/03/23 06:12:20;;;;;;;1.33;0.50;;;;;;;;;;5003104;28;82570;-54
2023/03/23 06:14:48;;;;;;;0.57;0.47;;;;;;;;;;5002837;28;82524;-54
2023/03/23 06:17:17;;;;;;;3.20;0.80;;;;;;;;;;5001298;28;84529;-55
2023/03/23 06:19:45;;;;;;;0.40;0.40;;;;;;;;;;5002140;28;81926;-55
2023/03/23 06:22:12;;;;;;;0.97;0.73;;;;;;;;;;5001578;28;81866;-54
2023/03/23 06:24:39;;;;;;;0.40;0.40;;;;;;;;;;5002082;28;83514;-54
2023/03/23 06:27:07;;;;;;;0.57;0.57;;;;;;;;;;5001061;28;83703;-55
2023/03/23 06:29:37;;;;;;;0.97;0.70;;;;;;;;;;5001492;28;83084;-54
2023/03/23 06:32:05;;;;;;;0.67;0.50;;;;;;;;;;5002833;28;82675;-57
2023/03/23 06:34:33;;;;;;;0.80;0.80;;;;;;;;;;5005563;28;82823;-56
2023/03/23 06:37:02;;;;;;;1.43;0.73;;;;;;;;;;5003582;28;84364;-56
2023/03/23 06:39:29;;;;;;;0.43;0.40;;;;;;;;;;5005017;28;82147;-56
2023/03/23 06:41:59;;;;;;;0.97;0.87;;;;;;;;;;4995337;28;82567;-55
2023/03/23 06:44:26;;;;;;;0.63;0.63;;;;;;;;;;5004519;28;83927;-54
2023/03/23 06:46:53;;;;;;;0.50;0.50;;;;;;;;;;5003976;28;82674;-55
2023/03/23 06:49:21;;;;;;;0.60;0.60;;;;;;;;;;5004794;28;82074;-55
2023/03/23 06:51:49;;;;;;;0.40;0.40;;;;;;;;;;5007635;28;83891;-54
2023/03/23 06:54:17;;;;;;;0.77;0.50;;;;;;;;;;5010537;28;85035;-54
2023/03/23 06:56:44;;;;;;;1.80;0.83;;;;;;;;;;5005278;28;84001;-54
2023/03/23 06:59:12;;;;;;;0.63;0.60;;;;;;;;;;5003086;28;82743;-55
2023/03/23 07:01:39;;;;;;;0.60;0.60;;;;;;;;;;5005447;28;83409;-54
2023/03/23 07:04:07;;;;;;;0.57;0.50;;;;;;;;;;5005947;28;82674;-55
2023/03/23 07:06:35;;;;;;;1.47;0.70;;;;;;;;;;5005804;28;85416;-54
2023/03/23 07:09:04;;;;;;;2.77;0.63;;;;;;;;;;5004439;28;81987;-54
2023/03/23 07:11:31;;;;;;;2.43;0.67;;;;;;;;;;5003851;28;83755;-55
2023/03/23 07:13:58;;;;;;;2.53;0.60;;;;;;;;;;5006387;28;83686;-54
2023/03/23 07:16:26;;;;;;;0.77;0.77;;;;;;;;;;5008947;28;81904;-55
2023/03/23 07:18:53;;;;;;;1.30;0.97;;;;;;;;;;4996762;28;84408;-55
2023/03/23 07:21:22;;;;;;;0.63;0.63;;;;;;;;;;4997912;28;82686;-55
2023/03/23 07:23:49;;;;;;;1.70;0.77;;;;;;;;;;5005864;28;82773;-55
2023/03/23 07:26:18;;;;;;;0.60;0.50;;;;;;;;;;5004479;28;82430;-55
2023/03/23 07:28:46;;;;;;;1.30;0.80;;;;;;;;;;5005289;28;82880;-55
2023/03/23 07:31:13;;;;;;;1.00;0.90;;;;;;;;;;5005886;28;83758;-55
2023/03/23 07:33:43;;;;;;;0.43;0.33;;;;;;;;;;5004994;28;83482;-56
2023/03/23 07:36:12;;;;;;;0.70;0.50;;;;;;;;;;5004408;28;83277;-55
2023/03/23 07:38:39;;;;;;;0.80;0.77;;;;;;;;;;5005143;28;82332;-53
2023/03/23 07:41:08;;;;;;;1.07;0.97;;;;;;;;;;5003319;28;84145;-56
2023/03/23 07:43:36;;;;;;;0.53;0.50;;;;;;;;;;5003186;28;85195;-54
2023/03/23 07:46:04;;;;;;;0.80;0.40;;;;;;;;;;5002888;28;86390;-57
2023/03/23 07:48:31;;;;;;;3.30;0.60;;;;;;;;;;5003557;28;82086;-55
2023/03/23 07:51:00;;;;;;;1.33;0.70;;;;;;;;;;5005596;28;82787;-55
2023/03/23 07:53:27;;;;;;;1.00;0.43;;;;;;;;;;5003362;28;83070;-55
2023/03/23 07:55:55;;;;;;;0.83;0.50;;;;;;;;;;5004507;28;83688;-55
2023/03/23 07:58:22;;;;;;;0.60;0.50;;;;;;;;;;5004021;28;82744;-54
2023/03/23 08:00:52;;;;;;;0.80;0.80;;;;;;;;;;5003714;28;84070;-58
2023/03/23 08:03:20;;;;;;;0.67;0.50;;;;;;;;;;5003826;28;82044;-57
2023/03/23 08:05:48;;;;;;;1.10;0.70;;;;;;;;;;5004326;28;82999;-57
2023/03/23 08:08:15;;;;;;;0.90;0.60;;;;;;;;;;5002463;28;82935;-57
2023/03/23 08:10:42;;;;;;;0.43;0.43;;;;;;;;;;5005281;28;81972;-55
2023/03/23 08:13:10;;;;;;;0.70;0.47;;;;;;;;;;5004189;28;82027;-56
2023/03/23 08:15:37;;;;;;;1.47;0.77;;;;;;;;;;5007024;28;82207;-54
2023/03/23 08:18:06;;;;;;;0.30;0.30;;;;;;;;;;5007515;28;82193;-55
2023/03/23 08:20:33;;;;;;;0.60;0.57;;;;;;;;;;5005711;28;82043;-56
2023/03/23 08:23:02;;;;;;;0.60;0.53;;;;;;;;;;4995327;28;83410;-56
2023/03/23 08:25:31;;;;;;;0.37;0.33;;;;;;;;;;5019332;28;82708;-57
2023/03/23 08:27:58;;;;;;;1.53;0.73;;;;;;;;;;5003548;28;81922;-57
2023/03/23 08:30:25;;;;;;;0.53;0.53;;;;;;;;;;5002491;28;83827;-57
2023/03/23 08:32:52;;;;;;;1.47;0.80;;;;;;;;;;5003197;28;83820;-57
2023/03/23 08:35:21;;;;;;;0.93;0.50;;;;;;;;;;5004857;28;83508;-57
2023/03/23 08:37:50;;;;;;;4.03;0.60;;;;;;;;;;4985699;28;82956;-57
2023/03/23 08:40:19;;;;;;;0.63;0.63;;;;;;;;;;5016040;28;84200;-56
2023/03/23 08:42:47;;;;;;;0.40;0.40;;;;;;;;;;5005080;28;81809;-56
2023/03/23 08:45:16;;;;;;;0.50;0.40;;;;;;;;;;5004581;28;82750;-56
2023/03/23 08:47:44;;;;;;;1.37;0.60;;;;;;;;;;5003863;28;82804;-57
2023/03/23 08:50:12;;;;;;;1.10;0.57;;;;;;;;;;5004232;28;83813;-56
2023/03/23 08:52:41;;;;;;;0.80;0.60;;;;;;;;;;5004922;28;82596;-56
2023/03/23 08:55:08;;;;;;;2.23;1.00;;;;;;;;;;5002765;28;82878;-56
2023/03/23 08:57:36;;;;;;;3.03;0.30;;;;;;;;;;5005681;28;83049;-57
2023/03/23 09:00:16;;;;;;;0.93;0.93;;;;;;;;;;4998846;28;82238;-56
2023/03/23 09:02:43;;;;;;;0.80;0.80;;;;;;;;;;5016299;28;83912;-54
2023/03/23 09:05:11;;;;;;;0.97;0.70;;;;;;;;;;5004005;28;83489;-53
2023/03/23 09:07:38;;;;;;;0.63;0.63;;;;;;;;;;5004249;28;81807;-54
2023/03/23 09:10:10;;;;;;;0.60;0.40;;;;;;;;;;5005284;28;83601;-54
2023/03/23 09:12:38;;;;;;;0.40;0.40;;;;;;;;;;5003294;28;82943;-53
2023/03/23 09:15:08;;;;;;;0.30;0.30;;;;;;;;;;5004227;28;82621;-53
2023/03/23 09:17:36;;;;;;;0.30;0.30;;;;;;;;;;5003215;28;81974;-54
2023/03/23 09:20:07;;;;;;;1.20;0.50;;;;;;;;;;5004146;28;83734;-53
2023/03/23 09:22:34;;;;;;;2.00;0.50;;;;;;;;;;5003845;28;83721;-53
2023/03/23 09:25:02;;;;;;;0.73;0.70;;;;;;;;;;5002887;28;83557;-53
2023/03/23 09:27:31;;;;;;;0.30;0.30;;;;;;;;;;5003672;28;81886;-54
2023/03/23 09:29:58;;;;;;;0.67;0.40;;;;;;;;;;5003476;28;82249;-54
2023/03/23 09:32:26;;;;;;;0.30;0.30;;;;;;;;;;5003244;28;83863;-53
2023/03/23 09:34:54;;;;;;;0.57;0.57;;;;;;;;;;5002716;28;84555;-53
2023/03/23 09:37:22;;;;;;;2.10;0.50;;;;;;;;;;5003828;28;81882;-53
2023/03/23 09:39:50;;;;;;;0.97;0.33;;;;;;;;;;5004877;28;81708;-53
2023/03/23 09:42:28;;;;;;;0.57;0.40;;;;;;;;;;5003211;28;83782;-53
2023/03/23 09:45:02;;;;;;;0.93;0.37;;;;;;;;;;5003448;28;82698;-53
2023/03/23 09:47:33;;;;;;;0.60;0.40;;;;;;;;;;5003309;28;82774;-53
2023/03/23 09:50:02;;;;;;;0.30;0.30;;;;;;;;;;5003704;28;82480;-53
2023/03/23 09:52:31;;;;;;;0.50;0.50;;;;;;;;;;5003534;28;82586;-53
2023/03/23 09:54:58;;;;;;;2.07;0.40;;;;;;;;;;5002565;28;82773;-53
2023/03/23 09:57:27;;;;;;;0.30;0.30;;;;;;;;;;5002367;28;81945;-53
2023/03/23 09:59:55;;;;;;;0.37;0.30;;;;;;;;;;5003041;28;82762;-53
2023/03/23 10:02:25;;;;;;;0.30;0.30;;;;;;;;;;5004068;28;83926;-53
2023/03/23 10:04:53;;;;;;;0.20;0.20;;;;;;;;;;5002775;28;81780;-53
2023/03/23 10:07:21;;;;;;;0.83;0.43;;;;;;;;;;5005266;28;82049;-53
2023/03/23 10:09:49;;;;;;;4.50;0.63;;;;;;;;;;5007321;28;82722;-53
2023/03/23 10:12:23;;;;;;;0.30;0.30;;;;;;;;;;5006679;28;82871;-53
2023/03/23 10:14:58;;;;;;;0.20;0.20;;;;;;;;;;5007001;28;82888;-53
2023/03/23 10:17:28;;;;;;;2.07;0.47;;;;;;;;;;5005757;28;83055;-52
2023/03/23 10:19:56;;;;;;;0.50;0.30;;;;;;;;;;5006050;28;83598;-53
2023/03/23 10:22:25;;;;;;;1.27;0.67;;;;;;;;;;5006917;28;82727;-53
2023/03/23 10:24:53;;;;;;;2.27;0.60;;;;;;;;;;5007208;28;82049;-53
2023/03/23 10:27:22;;;;;;;0.50;0.50;;;;;;;;;;5025498;28;82637;-53
2023/03/23 10:29:51;;;;;;;4.70;0.40;;;;;;;;;;5010903;28;82644;-53
2023/03/23 10:32:19;;;;;;;2.07;0.60;;;;;;;;;;5006041;28;83692;-53
2023/03/23 10:34:49;;;;;;;0.40;0.40;;;;;;;;;;5005516;28;85562;-53
2023/03/23 10:37:18;;;;;;;0.93;0.30;;;;;;;;;;5006710;28;82870;-53
2023/03/23 10:39:47;;;;;;;0.40;0.30;;;;;;;;;;5005496;28;84782;-53
2023/03/23 10:42:22;;;;;;;0.73;0.40;;;;;;;;;;5006896;28;82605;-53
2023/03/23 10:44:50;;;;;;;1.23;0.47;;;;;;;;;;5005270;28;85558;-53
2023/03/23 10:47:18;;;;;;;0.87;0.40;;;;;;;;;;5005522;28;82731;-53
2023/03/23 10:49:46;;;;;;;0.40;0.40;;;;;;;;;;5006071;28;83847;-53
2023/03/23 10:52:20;;;;;;;0.30;0.30;;;;;;;;;;5007266;28;82005;-53
2023/03/23 10:54:48;;;;;;;0.53;0.53;;;;;;;;;;5007372;28;83360;-53
2023/03/23 10:57:21;;;;;;;0.90;0.50;;;;;;;;;;5007052;28;81986;-53
2023/03/23 10:59:49;;;;;;;3.90;0.60;;;;;;;;;;5006874;28;83615;-54
2023/03/23 11:02:16;;;;;;;0.73;0.50;;;;;;;;;;5005374;28;85074;-53
2023/03/23 11:04:46;;;;;;;2.00;1.23;;;;;;;;;;5005210;28;83604;-53
2023/03/23 11:07:17;;;;;;;4.00;0.67;;;;;;;;;;5005733;28;81775;-53
2023/03/23 11:09:54;;;;;;;1.70;0.80;;;;;;;;;;5006126;28;82861;-53
2023/03/23 11:12:23;;;;;;;1.40;0.40;;;;;;;;;;5006487;28;81885;-53
2023/03/23 11:14:51;;;;;;;0.43;0.30;;;;;;;;;;5004272;28;83902;-55
2023/03/23 11:17:23;;;;;;;0.67;0.40;;;;;;;;;;5004882;28;81924;-53
2023/03/23 11:19:50;;;;;;;0.50;0.50;;;;;;;;;;5005119;28;84097;-53
2023/03/23 11:22:19;;;;;;;1.40;0.40;;;;;;;;;;5005272;28;83010;-53
2023/03/23 11:24:47;;;;;;;0.90;0.60;;;;;;;;;;5005514;28;84547;-55
2023/03/23 11:27:16;;;;;;;0.33;0.33;;;;;;;;;;5005649;28;83010;-53
2023/03/23 11:29:49;;;;;;;0.67;0.47;;;;;;;;;;5005037;28;82586;-53
2023/03/23 11:32:17;;;;;;;2.50;0.60;;;;;;;;;;5004235;28;83735;-53
2023/03/23 11:34:44;;;;;;;1.00;0.40;;;;;;;;;;5003821;28;83623;-53
2023/03/23 11:37:12;;;;;;;0.73;0.63;;;;;;;;;;5006043;28;81705;-53
2023/03/23 11:39:48;;;;;;;0.33;0.30;;;;;;;;;;5006121;28;83714;-53
2023/03/23 11:42:20;;;;;;;1.27;0.80;;;;;;;;;;5005546;28;82190;-53
2023/03/23 11:44:47;;;;;;;0.93;0.20;;;;;;;;;;5006303;28;82741;-53
2023/03/23 11:47:17;;;;;;;1.40;0.63;;;;;;;;;;5004389;28;82288;-53
2023/03/23 11:49:47;;;;;;;1.33;0.50;;;;;;;;;;5004186;28;82859;-53
2023/03/23 11:52:15;;;;;;;1.70;0.60;;;;;;;;;;5004321;28;84871;-54
2023/03/23 11:54:44;;;;;;;1.23;0.53;;;;;;;;;;5004898;28;84615;-54
2023/03/23 11:57:13;;;;;;;0.30;0.30;;;;;;;;;;5006203;28;81971;-54
2023/03/23 11:59:43;;;;;;;0.30;0.30;;;;;;;;;;5005657;28;82222;-54
2023/03/23 12:02:20;;;;;;;0.97;0.80;;;;;;;;;;5005025;28;83479;-53
2023/03/23 12:04:54;;;;;;;3.13;0.60;;;;;;;;;;5004623;28;84335;-53
2023/03/23 12:07:34;;;;;;;1.07;0.73;;;;;;;;;;5005693;28;81844;-54
2023/03/23 12:10:05;;;;;;;0.53;0.50;;;;;;;;;;5004426;28;84542;-53
2023/03/23 12:12:36;;;;;;;1.57;0.63;;;;;;;;;;5004686;28;82882;-54
2023/03/23 12:15:07;;;;;;;0.73;0.53;;;;;;;;;;5005415;28;82397;-53
2023/03/23 12:17:37;;;;;;;1.67;0.70;;;;;;;;;;5005399;28;82939;-53
2023/03/23 12:20:12;;;;;;;1.00;0.43;;;;;;;;;;5004640;28;83866;-54
2023/03/23 12:22:43;;;;;;;0.87;0.53;;;;;;;;;;5004793;28;83159;-53
2023/03/23 12:25:18;;;;;;;2.10;0.50;;;;;;;;;;5002889;28;82692;-53
2023/03/23 12:27:46;;;;;;;0.87;0.87;;;;;;;;;;5003873;28;82018;-53
2023/03/23 12:30:28;;;;;;;0.70;0.53;;;;;;;;;;5004172;28;82689;-53
2023/03/23 12:33:01;;;;;;;1.30;0.70;;;;;;;;;;5002758;28;82606;-53
2023/03/23 12:35:33;;;;;;;1.93;0.50;;;;;;;;;;5004635;28;82813;-53
2023/03/23 12:38:05;;;;;;;1.27;0.60;;;;;;;;;;5004568;28;82012;-53
2023/03/23 12:40:48;;;;;;;0.40;0.40;;;;;;;;;;5003937;28;83895;-53
2023/03/23 12:43:17;;;;;;;0.50;0.40;;;;;;;;;;5004651;28;84378;-54
2023/03/23 12:45:53;;;;;;;0.40;0.40;;;;;;;;;;5003566;28;85089;-55
2023/03/23 12:48:22;;;;;;;0.73;0.60;;;;;;;;;;5005279;28;81967;-53
2023/03/23 12:51:00;;;;;;;1.60;1.03;;;;;;;;;;5003968;28;84111;-53
2023/03/23 12:53:29;;;;;;;1.73;0.70;;;;;;;;;;5004354;28;83080;-53
2023/03/23 12:56:08;;;;;;;2.77;0.90;;;;;;;;;;5003965;28;82816;-53
2023/03/23 12:58:36;;;;;;;0.30;0.20;;;;;;;;;;5004978;28;81791;-53
2023/03/23 13:01:06;;;;;;;2.33;0.53;;;;;;;;;;5003589;28;82880;-53
2023/03/23 13:03:34;;;;;;;6.27;0.50;;;;;;;;;;5003255;28;82325;-54
2023/03/23 13:06:04;;;;;;;0.50;0.50;;;;;;;;;;5003077;28;82380;-53
2023/03/23 13:08:32;;;;;;;0.90;0.60;;;;;;;;;;5000660;28;82910;-53
2023/03/23 13:11:00;;;;;;;2.00;0.40;;;;;;;;;;5003229;28;82919;-53
2023/03/23 13:13:41;;;;;;;1.23;0.53;;;;;;;;;;5003858;28;83345;-53
2023/03/23 13:16:11;;;;;;;0.63;0.53;;;;;;;;;;5004473;28;82536;-53
2023/03/23 13:18:40;;;;;;;0.73;0.43;;;;;;;;;;5003736;28;81977;-54
2023/03/23 13:21:09;;;;;;;2.20;0.50;;;;;;;;;;5005007;28;82267;-54
2023/03/23 13:23:37;;;;;;;3.20;0.70;;;;;;;;;;5003773;28;83972;-54
2023/03/23 13:26:06;;;;;;;1.00;0.40;;;;;;;;;;5005148;28;82504;-53
2023/03/23 13:28:36;;;;;;;0.57;0.40;;;;;;;;;;5004714;28;81876;-54
2023/03/23 13:31:04;;;;;;;3.00;0.67;;;;;;;;;;5004482;28;83600;-53
2023/03/23 13:33:36;;;;;;;2.73;0.70;;;;;;;;;;5004071;28;82768;-53
2023/03/23 13:36:09;;;;;;;1.87;0.90;;;;;;;;;;5003310;28;84882;-54
2023/03/23 13:38:37;;;;;;;5.27;0.63;;;;;;;;;;5003401;28;81999;-53
2023/03/23 13:41:11;;;;;;;4.30;0.60;;;;;;;;;;5003568;28;84672;-54
2023/03/23 13:43:39;;;;;;;0.53;0.53;;;;;;;;;;5004499;28;82887;-53
2023/03/23 13:46:11;;;;;;;1.47;0.50;;;;;;;;;;5002853;28;82840;-53
2023/03/23 13:48:44;;;;;;;1.70;0.80;;;;;;;;;;5004248;28;82054;-53
2023/03/23 13:51:29;;;;;;;2.03;0.83;;;;;;;;;;5003365;28;84015;-53
2023/03/23 13:54:06;;;;;;;1.53;0.70;;;;;;;;;;5002987;28;82991;-53
2023/03/23 13:56:36;;;;;;;0.37;0.37;;;;;;;;;;5003950;28;82426;-53
2023/03/23 13:59:08;;;;;;;0.77;0.50;;;;;;;;;;5004399;28;82621;-53
2023/03/23 14:01:36;;;;;;;1.57;0.80;;;;;;;;;;5003165;28;83014;-53
2023/03/23 14:04:06;;;;;;;0.70;0.40;;;;;;;;;;5003178;28;83949;-54
2023/03/23 14:06:35;;;;;;;0.67;0.67;;;;;;;;;;5003942;28;81705;-54
2023/03/23 14:09:06;;;;;;;1.23;0.40;;;;;;;;;;5004088;28;81797;-53
2023/03/23 14:11:41;;;;;;;2.37;0.80;;;;;;;;;;5003694;28;81864;-54
2023/03/23 14:14:10;;;;;;;3.77;0.60;;;;;;;;;;5003267;28;82833;-53
2023/03/23 14:16:38;;;;;;;3.53;0.93;;;;;;;;;;5004226;28;82892;-53
2023/03/23 14:19:15;;;;;;;2.30;0.63;;;;;;;;;;5002850;28;81987;-53
2023/03/23 14:21:43;;;;;;;0.93;0.50;;;;;;;;;;5003869;28;82643;-54
2023/03/23 14:24:11;;;;;;;1.03;0.40;;;;;;;;;;5003476;28;84820;-54
2023/03/23 14:26:39;;;;;;;1.47;0.70;;;;;;;;;;5002964;28;83701;-54
2023/03/23 14:29:08;;;;;;;1.90;0.63;;;;;;;;;;5002933;28;82013;-54
2023/03/23 14:31:36;;;;;;;0.50;0.50;;;;;;;;;;5001670;28;82829;-54
2023/03/23 14:34:05;;;;;;;1.57;0.77;;;;;;;;;;5003821;28;82799;-53
2023/03/23 14:36:36;;;;;;;0.33;0.33;;;;;;;;;;5003035;28;82664;-53
2023/03/23 14:39:05;;;;;;;1.00;0.37;;;;;;;;;;5004073;28;81939;-53
2023/03/23 14:41:35;;;;;;;0.60;0.40;;;;;;;;;;5003812;28;82544;-53
2023/03/23 14:44:03;;;;;;;0.63;0.60;;;;;;;;;;5002355;28;83949;-53
2023/03/23 14:46:31;;;;;;;0.60;0.57;;;;;;;;;;5003185;28;82162;-54
2023/03/23 14:48:58;;;;;;;0.73;0.53;;;;;;;;;;5001608;28;82827;-53
2023/03/23 14:51:25;;;;;;;2.37;0.73;;;;;;;;;;5002809;28;82784;-53
2023/03/23 14:53:55;;;;;;;0.60;0.47;;;;;;;;;;5006064;28;83683;-54
2023/03/23 14:56:27;;;;;;;1.33;0.60;;;;;;;;;;5005760;28;83580;-53
2023/03/23 14:58:56;;;;;;;0.97;0.83;;;;;;;;;;5006688;28;81919;-54